sensor_id;sensor_type;location;lat;lon;timestamp;pressure;altitude;pressure_sealevel;temperature;humidity
75745;BME280;74462;51.366;-0.222;2024-03-08T00:00:57;101148.64;;;8.43;69.14
75745;BME280;74462;51.366;-0.222;2024-03-08T00:02:02;101145.27;;;8.43;68.91
75745;BME280;74462;51.366;-0.222;2024-03-08T00:03:06;101144.02;;;8.44;69.33
75745;BME280;74462;51.366;-0.222;2024-03-08T00:04:11;101140.81;;;8.44;69.26
75745;BME280;74462;51.366;-0.222;2024-03-08T00:05:16;101140.96;;;8.44;69.38
75745;BME280;74462;51.366;-0.222;2024-03-08T00:06:21;101140.23;;;8.45;69.38
75745;BME280;74462;51.366;-0.222;2024-03-08T00:07:25;101135.60;;;8.45;69.26
75745;BME280;74462;51.366;-0.222;2024-03-08T00:08:30;101132.41;;;8.45;69.05
75745;BME280;74462;51.366;-0.222;2024-03-08T00:09:35;101135.36;;;8.46;69.06
75745;BME280;74462;51.366;-0.222;2024-03-08T00:10:39;101134.35;;;8.45;69.29
75745;BME280;74462;51.366;-0.222;2024-03-08T00:11:44;101131.92;;;8.45;69.19
75745;BME280;74462;51.366;-0.222;2024-03-08T00:12:49;101132.98;;;8.45;69.12
75745;BME280;74462;51.366;-0.222;2024-03-08T00:13:54;101131.95;;;8.44;69.17
75745;BME280;74462;51.366;-0.222;2024-03-08T00:14:59;101128.81;;;8.44;69.39
75745;BME280;74462;51.366;-0.222;2024-03-08T00:16:04;101128.61;;;8.41;69.40
75745;BME280;74462;51.366;-0.222;2024-03-08T00:17:08;101127.40;;;8.41;69.12
75745;BME280;74462;51.366;-0.222;2024-03-08T00:18:13;101130.27;;;8.40;69.24
75745;BME280;74462;51.366;-0.222;2024-03-08T00:19:17;101127.95;;;8.40;69.33
75745;BME280;74462;51.366;-0.222;2024-03-08T00:20:21;101125.48;;;8.38;69.45
75745;BME280;74462;51.366;-0.222;2024-03-08T00:21:26;101119.45;;;8.38;69.16
75745;BME280;74462;51.366;-0.222;2024-03-08T00:22:31;101115.80;;;8.37;69.45
75745;BME280;74462;51.366;-0.222;2024-03-08T00:23:35;101114.09;;;8.36;69.52
75745;BME280;74462;51.366;-0.222;2024-03-08T00:24:40;101111.84;;;8.36;69.72
75745;BME280;74462;51.366;-0.222;2024-03-08T00:25:44;101112.27;;;8.34;69.53
75745;BME280;74462;51.366;-0.222;2024-03-08T00:26:48;101112.26;;;8.34;69.84
75745;BME280;74462;51.366;-0.222;2024-03-08T00:27:53;101109.09;;;8.34;69.70
75745;BME280;74462;51.366;-0.222;2024-03-08T00:28:58;101109.30;;;8.33;69.80
75745;BME280;74462;51.366;-0.222;2024-03-08T00:30:03;101106.65;;;8.33;69.98
75745;BME280;74462;51.366;-0.222;2024-03-08T00:31:08;101107.30;;;8.31;70.16
75745;BME280;74462;51.366;-0.222;2024-03-08T00:32:13;101103.70;;;8.32;70.00
75745;BME280;74462;51.366;-0.222;2024-03-08T00:33:17;101104.08;;;8.32;69.91
75745;BME280;74462;51.366;-0.222;2024-03-08T00:34:22;101098.34;;;8.30;70.15
75745;BME280;74462;51.366;-0.222;2024-03-08T00:35:26;101097.34;;;8.29;70.13
75745;BME280;74462;51.366;-0.222;2024-03-08T00:36:30;101096.15;;;8.28;70.02
75745;BME280;74462;51.366;-0.222;2024-03-08T00:37:35;101094.90;;;8.28;70.14
75745;BME280;74462;51.366;-0.222;2024-03-08T00:38:39;101095.95;;;8.28;70.07
75745;BME280;74462;51.366;-0.222;2024-03-08T00:39:43;101092.92;;;8.29;70.19
75745;BME280;74462;51.366;-0.222;2024-03-08T00:40:48;101092.76;;;8.29;70.35
75745;BME280;74462;51.366;-0.222;2024-03-08T00:41:52;101090.13;;;8.28;70.31
75745;BME280;74462;51.366;-0.222;2024-03-08T00:42:56;101090.71;;;8.27;70.35
75745;BME280;74462;51.366;-0.222;2024-03-08T00:44:01;101089.13;;;8.27;70.52
75745;BME280;74462;51.366;-0.222;2024-03-08T00:45:08;101090.96;;;8.26;70.41
75745;BME280;74462;51.366;-0.222;2024-03-08T00:46:13;101088.16;;;8.25;70.49
75745;BME280;74462;51.366;-0.222;2024-03-08T00:47:18;101087.13;;;8.25;70.53
75745;BME280;74462;51.366;-0.222;2024-03-08T00:48:23;101084.31;;;8.25;70.42
75745;BME280;74462;51.366;-0.222;2024-03-08T00:49:27;101079.92;;;8.24;70.48
75745;BME280;74462;51.366;-0.222;2024-03-08T00:50:31;101083.34;;;8.24;70.52
75745;BME280;74462;51.366;-0.222;2024-03-08T00:51:37;101082.38;;;8.22;70.63
75745;BME280;74462;51.366;-0.222;2024-03-08T00:52:41;101082.77;;;8.22;70.88
75745;BME280;74462;51.366;-0.222;2024-03-08T00:53:45;101083.23;;;8.17;71.09
75745;BME280;74462;51.366;-0.222;2024-03-08T00:54:50;101081.87;;;8.17;70.67
75745;BME280;74462;51.366;-0.222;2024-03-08T00:55:54;101080.64;;;8.16;70.80
75745;BME280;74462;51.366;-0.222;2024-03-08T00:56:59;101079.16;;;8.15;71.12
75745;BME280;74462;51.366;-0.222;2024-03-08T00:58:06;101075.20;;;8.13;70.81
75745;BME280;74462;51.366;-0.222;2024-03-08T00:59:12;101075.54;;;8.11;71.01
75745;BME280;74462;51.366;-0.222;2024-03-08T01:00:18;101072.42;;;8.10;71.22
75745;BME280;74462;51.366;-0.222;2024-03-08T01:01:23;101069.42;;;8.09;71.21
75745;BME280;74462;51.366;-0.222;2024-03-08T01:02:28;101071.11;;;8.08;71.18
75745;BME280;74462;51.366;-0.222;2024-03-08T01:03:32;101065.80;;;8.08;71.13
75745;BME280;74462;51.366;-0.222;2024-03-08T01:04:37;101068.26;;;8.06;71.55
75745;BME280;74462;51.366;-0.222;2024-03-08T01:05:41;101067.60;;;8.05;71.32
75745;BME280;74462;51.366;-0.222;2024-03-08T01:06:46;101066.06;;;8.04;71.63
75745;BME280;74462;51.366;-0.222;2024-03-08T01:07:50;101065.60;;;8.02;71.42
75745;BME280;74462;51.366;-0.222;2024-03-08T01:08:54;101064.07;;;8.01;71.54
75745;BME280;74462;51.366;-0.222;2024-03-08T01:09:59;101059.91;;;8.00;71.57
75745;BME280;74462;51.366;-0.222;2024-03-08T01:11:04;101057.98;;;7.97;71.77
75745;BME280;74462;51.366;-0.222;2024-03-08T01:12:08;101057.48;;;7.96;71.60
75745;BME280;74462;51.366;-0.222;2024-03-08T01:13:13;101059.10;;;7.96;71.92
75745;BME280;74462;51.366;-0.222;2024-03-08T01:14:18;101057.06;;;7.95;71.79
75745;BME280;74462;51.366;-0.222;2024-03-08T01:15:22;101057.29;;;7.94;71.68
75745;BME280;74462;51.366;-0.222;2024-03-08T01:16:27;101057.02;;;7.93;71.97
75745;BME280;74462;51.366;-0.222;2024-03-08T01:17:31;101056.08;;;7.94;71.83
75745;BME280;74462;51.366;-0.222;2024-03-08T01:18:36;101051.21;;;7.92;71.89
75745;BME280;74462;51.366;-0.222;2024-03-08T01:19:40;101053.52;;;7.92;72.01
75745;BME280;74462;51.366;-0.222;2024-03-08T01:20:44;101047.41;;;7.91;72.02
75745;BME280;74462;51.366;-0.222;2024-03-08T01:21:49;101048.96;;;7.92;71.61
75745;BME280;74462;51.366;-0.222;2024-03-08T01:22:54;101044.52;;;7.89;71.94
75745;BME280;74462;51.366;-0.222;2024-03-08T01:23:58;101040.45;;;7.90;72.07
75745;BME280;74462;51.366;-0.222;2024-03-08T01:25:03;101038.88;;;7.89;72.21
75745;BME280;74462;51.366;-0.222;2024-03-08T01:26:08;101033.27;;;7.88;72.02
75745;BME280;74462;51.366;-0.222;2024-03-08T01:27:14;101034.52;;;7.88;71.82
75745;BME280;74462;51.366;-0.222;2024-03-08T01:28:19;101032.61;;;7.87;71.87
75745;BME280;74462;51.366;-0.222;2024-03-08T01:29:23;101029.10;;;7.87;72.08
75745;BME280;74462;51.366;-0.222;2024-03-08T01:30:27;101032.48;;;7.87;72.01
75745;BME280;74462;51.366;-0.222;2024-03-08T01:31:32;101028.98;;;7.87;71.95
75745;BME280;74462;51.366;-0.222;2024-03-08T01:32:37;101030.61;;;7.86;71.93
75745;BME280;74462;51.366;-0.222;2024-03-08T01:33:41;101030.66;;;7.85;72.00
75745;BME280;74462;51.366;-0.222;2024-03-08T01:34:46;101027.38;;;7.84;72.26
75745;BME280;74462;51.366;-0.222;2024-03-08T01:35:50;101025.77;;;7.84;71.96
75745;BME280;74462;51.366;-0.222;2024-03-08T01:36:55;101025.04;;;7.84;71.80
75745;BME280;74462;51.366;-0.222;2024-03-08T01:38:00;101025.58;;;7.84;72.22
75745;BME280;74462;51.366;-0.222;2024-03-08T01:39:04;101023.31;;;7.84;71.97
75745;BME280;74462;51.366;-0.222;2024-03-08T01:40:11;101021.47;;;7.82;72.04
75745;BME280;74462;51.366;-0.222;2024-03-08T01:41:16;101020.64;;;7.81;72.12
75745;BME280;74462;51.366;-0.222;2024-03-08T01:42:20;101019.23;;;7.81;72.07
75745;BME280;74462;51.366;-0.222;2024-03-08T01:43:27;101016.59;;;7.78;72.40
75745;BME280;74462;51.366;-0.222;2024-03-08T01:44:32;101015.17;;;7.78;72.12
75745;BME280;74462;51.366;-0.222;2024-03-08T01:45:37;101016.83;;;7.77;72.29
75745;BME280;74462;51.366;-0.222;2024-03-08T01:46:42;101012.24;;;7.77;72.07
75745;BME280;74462;51.366;-0.222;2024-03-08T01:47:47;101010.34;;;7.76;71.96
75745;BME280;74462;51.366;-0.222;2024-03-08T01:48:52;101006.56;;;7.77;72.17
75745;BME280;74462;51.366;-0.222;2024-03-08T01:49:56;101007.45;;;7.77;72.02
75745;BME280;74462;51.366;-0.222;2024-03-08T01:51:01;101009.57;;;7.77;72.03
75745;BME280;74462;51.366;-0.222;2024-03-08T01:52:07;101007.60;;;7.78;72.09
75745;BME280;74462;51.366;-0.222;2024-03-08T01:53:11;101000.38;;;7.77;72.08
75745;BME280;74462;51.366;-0.222;2024-03-08T01:54:19;101000.58;;;7.77;71.96
75745;BME280;74462;51.366;-0.222;2024-03-08T01:55:24;101001.81;;;7.77;71.96
75745;BME280;74462;51.366;-0.222;2024-03-08T01:56:28;101000.58;;;7.77;71.86
75745;BME280;74462;51.366;-0.222;2024-03-08T01:57:35;101001.86;;;7.76;72.06
75745;BME280;74462;51.366;-0.222;2024-03-08T01:58:42;101000.32;;;7.76;72.06
75745;BME280;74462;51.366;-0.222;2024-03-08T01:59:47;100998.91;;;7.75;71.99
75745;BME280;74462;51.366;-0.222;2024-03-08T02:00:54;100999.29;;;7.75;71.95
75745;BME280;74462;51.366;-0.222;2024-03-08T02:02:02;100997.38;;;7.74;72.24
75745;BME280;74462;51.366;-0.222;2024-03-08T02:03:07;100994.35;;;7.75;72.09
75745;BME280;74462;51.366;-0.222;2024-03-08T02:04:11;100992.40;;;7.75;72.34
75745;BME280;74462;51.366;-0.222;2024-03-08T02:05:16;100991.67;;;7.75;72.08
75745;BME280;74462;51.366;-0.222;2024-03-08T02:06:21;100988.13;;;7.75;72.05
75745;BME280;74462;51.366;-0.222;2024-03-08T02:07:25;100989.23;;;7.75;71.67
75745;BME280;74462;51.366;-0.222;2024-03-08T02:08:29;100987.48;;;7.75;71.98
75745;BME280;74462;51.366;-0.222;2024-03-08T02:09:34;100987.84;;;7.74;71.95
75745;BME280;74462;51.366;-0.222;2024-03-08T02:10:39;100984.67;;;7.74;71.84
75745;BME280;74462;51.366;-0.222;2024-03-08T02:11:44;100984.02;;;7.73;71.85
75745;BME280;74462;51.366;-0.222;2024-03-08T02:12:49;100979.36;;;7.71;71.94
75745;BME280;74462;51.366;-0.222;2024-03-08T02:13:54;100975.27;;;7.72;72.11
75745;BME280;74462;51.366;-0.222;2024-03-08T02:14:59;100971.27;;;7.71;71.68
75745;BME280;74462;51.366;-0.222;2024-03-08T02:16:04;100971.67;;;7.70;72.10
75745;BME280;74462;51.366;-0.222;2024-03-08T02:17:10;100970.85;;;7.69;72.03
75745;BME280;74462;51.366;-0.222;2024-03-08T02:18:16;100969.83;;;7.68;71.92
75745;BME280;74462;51.366;-0.222;2024-03-08T02:19:20;100968.36;;;7.67;71.92
75745;BME280;74462;51.366;-0.222;2024-03-08T02:21:34;100964.02;;;7.63;72.03
75745;BME280;74462;51.366;-0.222;2024-03-08T02:22:40;100959.66;;;7.62;72.20
75745;BME280;74462;51.366;-0.222;2024-03-08T02:23:44;100957.84;;;7.60;72.22
75745;BME280;74462;51.366;-0.222;2024-03-08T02:24:49;100955.36;;;7.60;72.00
75745;BME280;74462;51.366;-0.222;2024-03-08T02:25:54;100956.48;;;7.59;72.20
75745;BME280;74462;51.366;-0.222;2024-03-08T02:26:59;100953.49;;;7.59;72.32
75745;BME280;74462;51.366;-0.222;2024-03-08T02:28:04;100959.80;;;7.57;72.30
75745;BME280;74462;51.366;-0.222;2024-03-08T02:29:08;100955.27;;;7.55;72.30
75745;BME280;74462;51.366;-0.222;2024-03-08T02:30:14;100951.61;;;7.55;72.13
75745;BME280;74462;51.366;-0.222;2024-03-08T02:31:20;100949.56;;;7.54;72.41
75745;BME280;74462;51.366;-0.222;2024-03-08T02:32:25;100943.41;;;7.53;72.38
75745;BME280;74462;51.366;-0.222;2024-03-08T02:33:29;100944.15;;;7.53;72.42
75745;BME280;74462;51.366;-0.222;2024-03-08T02:34:34;100940.66;;;7.52;72.33
75745;BME280;74462;51.366;-0.222;2024-03-08T02:35:38;100936.11;;;7.52;72.47
75745;BME280;74462;51.366;-0.222;2024-03-08T02:36:42;100932.98;;;7.50;72.20
75745;BME280;74462;51.366;-0.222;2024-03-08T02:37:47;100932.98;;;7.48;72.37
75745;BME280;74462;51.366;-0.222;2024-03-08T02:38:51;100928.73;;;7.48;72.44
75745;BME280;74462;51.366;-0.222;2024-03-08T02:39:58;100928.30;;;7.46;72.39
75745;BME280;74462;51.366;-0.222;2024-03-08T02:41:03;100929.14;;;7.47;72.15
75745;BME280;74462;51.366;-0.222;2024-03-08T02:42:08;100926.73;;;7.46;72.35
75745;BME280;74462;51.366;-0.222;2024-03-08T02:43:13;100923.61;;;7.45;72.52
75745;BME280;74462;51.366;-0.222;2024-03-08T02:44:17;100922.06;;;7.45;72.24
75745;BME280;74462;51.366;-0.222;2024-03-08T02:45:24;100927.84;;;7.46;72.39
75745;BME280;74462;51.366;-0.222;2024-03-08T02:46:29;100924.66;;;7.46;72.40
75745;BME280;74462;51.366;-0.222;2024-03-08T02:47:33;100921.00;;;7.45;72.36
75745;BME280;74462;51.366;-0.222;2024-03-08T02:48:38;100924.13;;;7.46;72.64
75745;BME280;74462;51.366;-0.222;2024-03-08T02:49:42;100923.91;;;7.46;72.46
75745;BME280;74462;51.366;-0.222;2024-03-08T02:50:47;100921.44;;;7.46;72.19
75745;BME280;74462;51.366;-0.222;2024-03-08T02:51:51;100920.39;;;7.46;72.21
75745;BME280;74462;51.366;-0.222;2024-03-08T02:52:56;100917.58;;;7.46;72.22
75745;BME280;74462;51.366;-0.222;2024-03-08T02:54:00;100917.36;;;7.46;71.93
75745;BME280;74462;51.366;-0.222;2024-03-08T02:55:06;100912.79;;;7.46;72.26
75745;BME280;74462;51.366;-0.222;2024-03-08T02:56:11;100911.92;;;7.46;72.21
75745;BME280;74462;51.366;-0.222;2024-03-08T02:57:19;100911.42;;;7.45;72.11
75745;BME280;74462;51.366;-0.222;2024-03-08T02:58:24;100913.23;;;7.45;72.00
75745;BME280;74462;51.366;-0.222;2024-03-08T02:59:28;100910.21;;;7.45;71.92
75745;BME280;74462;51.366;-0.222;2024-03-08T03:00:32;100911.54;;;7.43;71.90
75745;BME280;74462;51.366;-0.222;2024-03-08T03:01:37;100908.02;;;7.43;72.01
75745;BME280;74462;51.366;-0.222;2024-03-08T03:02:41;100908.04;;;7.43;72.19
75745;BME280;74462;51.366;-0.222;2024-03-08T03:03:46;100904.88;;;7.43;72.07
75745;BME280;74462;51.366;-0.222;2024-03-08T03:04:51;100900.63;;;7.43;72.05
75745;BME280;74462;51.366;-0.222;2024-03-08T03:05:55;100902.36;;;7.43;71.82
75745;BME280;74462;51.366;-0.222;2024-03-08T03:07:00;100899.22;;;7.43;71.86
75745;BME280;74462;51.366;-0.222;2024-03-08T03:08:05;100899.45;;;7.42;72.07
75745;BME280;74462;51.366;-0.222;2024-03-08T03:09:11;100894.17;;;7.42;71.77
75745;BME280;74462;51.366;-0.222;2024-03-08T03:10:20;100893.30;;;7.41;71.91
75745;BME280;74462;51.366;-0.222;2024-03-08T03:11:24;100893.49;;;7.41;72.04
75745;BME280;74462;51.366;-0.222;2024-03-08T03:12:30;100890.16;;;7.41;71.86
75745;BME280;74462;51.366;-0.222;2024-03-08T03:13:36;100888.59;;;7.40;71.82
75745;BME280;74462;51.366;-0.222;2024-03-08T03:14:41;100891.98;;;7.40;72.11
75745;BME280;74462;51.366;-0.222;2024-03-08T03:15:47;100889.39;;;7.39;71.84
75745;BME280;74462;51.366;-0.222;2024-03-08T03:16:51;100889.39;;;7.39;71.73
75745;BME280;74462;51.366;-0.222;2024-03-08T03:17:56;100885.77;;;7.37;71.96
75745;BME280;74462;51.366;-0.222;2024-03-08T03:19:00;100885.23;;;7.37;71.74
75745;BME280;74462;51.366;-0.222;2024-03-08T03:20:09;100884.42;;;7.33;71.48
75745;BME280;74462;51.366;-0.222;2024-03-08T03:21:16;100884.03;;;7.34;71.71
75745;BME280;74462;51.366;-0.222;2024-03-08T03:22:21;100882.64;;;7.34;72.04
75745;BME280;74462;51.366;-0.222;2024-03-08T03:23:26;100883.23;;;7.33;72.03
75745;BME280;74462;51.366;-0.222;2024-03-08T03:24:30;100879.58;;;7.32;72.13
75745;BME280;74462;51.366;-0.222;2024-03-08T03:25:36;100879.77;;;7.31;71.81
75745;BME280;74462;51.366;-0.222;2024-03-08T03:26:44;100879.41;;;7.32;71.85
75745;BME280;74462;51.366;-0.222;2024-03-08T03:27:49;100881.39;;;7.31;71.89
75745;BME280;74462;51.366;-0.222;2024-03-08T03:28:53;100878.70;;;7.32;71.85
75745;BME280;74462;51.366;-0.222;2024-03-08T03:29:58;100878.89;;;7.31;71.93
75745;BME280;74462;51.366;-0.222;2024-03-08T03:31:22;100873.23;;;7.31;71.72
75745;BME280;74462;51.366;-0.222;2024-03-08T03:32:28;100873.33;;;7.30;71.71
75745;BME280;74462;51.366;-0.222;2024-03-08T03:33:33;100873.15;;;7.30;71.96
75745;BME280;74462;51.366;-0.222;2024-03-08T03:34:39;100873.77;;;7.29;71.52
75745;BME280;74462;51.366;-0.222;2024-03-08T03:35:44;100868.37;;;7.28;71.86
75745;BME280;74462;51.366;-0.222;2024-03-08T03:36:48;100871.10;;;7.26;72.07
75745;BME280;74462;51.366;-0.222;2024-03-08T03:37:53;100869.27;;;7.25;71.76
75745;BME280;74462;51.366;-0.222;2024-03-08T03:39:08;100865.44;;;7.24;71.75
75745;BME280;74462;51.366;-0.222;2024-03-08T03:40:16;100861.08;;;7.23;72.05
75745;BME280;74462;51.366;-0.222;2024-03-08T03:41:22;100858.55;;;7.21;71.91
75745;BME280;74462;51.366;-0.222;2024-03-08T03:42:26;100856.96;;;7.18;71.94
75745;BME280;74462;51.366;-0.222;2024-03-08T03:43:31;100858.27;;;7.18;71.77
75745;BME280;74462;51.366;-0.222;2024-03-08T03:44:35;100854.86;;;7.15;71.86
75745;BME280;74462;51.366;-0.222;2024-03-08T03:45:40;100849.43;;;7.15;72.16
75745;BME280;74462;51.366;-0.222;2024-03-08T03:46:45;100853.64;;;7.13;72.00
75745;BME280;74462;51.366;-0.222;2024-03-08T03:47:49;100848.00;;;7.12;72.13
75745;BME280;74462;51.366;-0.222;2024-03-08T03:48:54;100847.95;;;7.10;71.95
75745;BME280;74462;51.366;-0.222;2024-03-08T03:49:59;100846.98;;;7.08;72.20
75745;BME280;74462;51.366;-0.222;2024-03-08T03:51:06;100844.80;;;7.06;72.11
75745;BME280;74462;51.366;-0.222;2024-03-08T03:52:10;100843.48;;;7.05;72.10
75745;BME280;74462;51.366;-0.222;2024-03-08T03:53:15;100840.98;;;7.03;72.14
75745;BME280;74462;51.366;-0.222;2024-03-08T03:54:20;100840.83;;;7.00;72.60
75745;BME280;74462;51.366;-0.222;2024-03-08T03:55:24;100841.04;;;6.99;72.40
75745;BME280;74462;51.366;-0.222;2024-03-08T03:56:30;100838.98;;;6.98;72.38
75745;BME280;74462;51.366;-0.222;2024-03-08T03:57:34;100838.83;;;6.98;72.40
75745;BME280;74462;51.366;-0.222;2024-03-08T03:58:39;100837.26;;;6.98;72.30
75745;BME280;74462;51.366;-0.222;2024-03-08T03:59:43;100839.42;;;6.97;72.42
75745;BME280;74462;51.366;-0.222;2024-03-08T04:00:48;100838.95;;;6.96;72.64
75745;BME280;74462;51.366;-0.222;2024-03-08T04:01:52;100838.36;;;6.97;72.62
75745;BME280;74462;51.366;-0.222;2024-03-08T04:02:57;100840.69;;;6.96;72.58
75745;BME280;74462;51.366;-0.222;2024-03-08T04:04:03;100839.30;;;6.96;72.41
75745;BME280;74462;51.366;-0.222;2024-03-08T04:05:09;100840.00;;;6.96;72.43
75745;BME280;74462;51.366;-0.222;2024-03-08T04:06:13;100837.46;;;6.95;72.25
75745;BME280;74462;51.366;-0.222;2024-03-08T04:07:18;100836.76;;;6.94;72.39
75745;BME280;74462;51.366;-0.222;2024-03-08T04:08:22;100835.38;;;6.94;72.69
75745;BME280;74462;51.366;-0.222;2024-03-08T04:09:27;100837.13;;;6.92;72.43
75745;BME280;74462;51.366;-0.222;2024-03-08T04:10:32;100836.46;;;6.91;72.46
75745;BME280;74462;51.366;-0.222;2024-03-08T04:11:36;100833.33;;;6.90;72.51
75745;BME280;74462;51.366;-0.222;2024-03-08T04:12:41;100831.96;;;6.90;72.46
75745;BME280;74462;51.366;-0.222;2024-03-08T04:13:45;100833.29;;;6.88;72.90
75745;BME280;74462;51.366;-0.222;2024-03-08T04:14:49;100830.48;;;6.88;72.58
75745;BME280;74462;51.366;-0.222;2024-03-08T04:15:54;100829.45;;;6.87;72.72
75745;BME280;74462;51.366;-0.222;2024-03-08T04:16:58;100826.34;;;6.86;72.67
75745;BME280;74462;51.366;-0.222;2024-03-08T04:18:03;100828.64;;;6.86;72.80
75745;BME280;74462;51.366;-0.222;2024-03-08T04:19:07;100825.13;;;6.86;72.55
75745;BME280;74462;51.366;-0.222;2024-03-08T04:20:13;100825.20;;;6.85;72.72
75745;BME280;74462;51.366;-0.222;2024-03-08T04:21:17;100826.55;;;6.83;72.54
75745;BME280;74462;51.366;-0.222;2024-03-08T04:22:23;100824.77;;;6.83;72.41
75745;BME280;74462;51.366;-0.222;2024-03-08T04:23:27;100821.27;;;6.83;72.71
75745;BME280;74462;51.366;-0.222;2024-03-08T04:24:32;100822.14;;;6.83;72.39
75745;BME280;74462;51.366;-0.222;2024-03-08T04:25:36;100820.98;;;6.81;72.53
75745;BME280;74462;51.366;-0.222;2024-03-08T04:26:40;100819.85;;;6.80;72.46
75745;BME280;74462;51.366;-0.222;2024-03-08T04:27:45;100817.63;;;6.79;72.64
75745;BME280;74462;51.366;-0.222;2024-03-08T04:28:50;100819.92;;;6.78;72.47
75745;BME280;74462;51.366;-0.222;2024-03-08T04:29:54;100817.27;;;6.79;72.39
75745;BME280;74462;51.366;-0.222;2024-03-08T04:31:00;100819.34;;;6.76;72.64
75745;BME280;74462;51.366;-0.222;2024-03-08T04:32:06;100815.45;;;6.76;72.59
75745;BME280;74462;51.366;-0.222;2024-03-08T04:33:11;100814.79;;;6.76;72.55
75745;BME280;74462;51.366;-0.222;2024-03-08T04:34:17;100812.38;;;6.75;72.55
75745;BME280;74462;51.366;-0.222;2024-03-08T04:35:22;100809.59;;;6.74;72.61
75745;BME280;74462;51.366;-0.222;2024-03-08T04:36:27;100810.45;;;6.75;72.68
75745;BME280;74462;51.366;-0.222;2024-03-08T04:37:31;100807.17;;;6.73;72.78
75745;BME280;74462;51.366;-0.222;2024-03-08T04:38:36;100808.58;;;6.74;72.80
75745;BME280;74462;51.366;-0.222;2024-03-08T04:39:43;100806.35;;;6.73;72.53
75745;BME280;74462;51.366;-0.222;2024-03-08T04:40:48;100809.21;;;6.72;72.36
75745;BME280;74462;51.366;-0.222;2024-03-08T04:41:52;100806.03;;;6.72;72.44
75745;BME280;74462;51.366;-0.222;2024-03-08T04:42:57;100806.54;;;6.73;72.59
75745;BME280;74462;51.366;-0.222;2024-03-08T04:44:03;100808.66;;;6.73;72.68
75745;BME280;74462;51.366;-0.222;2024-03-08T04:45:08;100809.33;;;6.73;72.70
75745;BME280;74462;51.366;-0.222;2024-03-08T04:46:13;100805.98;;;6.73;72.43
75745;BME280;74462;51.366;-0.222;2024-03-08T04:47:19;100807.17;;;6.73;72.34
75745;BME280;74462;51.366;-0.222;2024-03-08T04:48:23;100806.66;;;6.73;72.26
75745;BME280;74462;51.366;-0.222;2024-03-08T04:49:29;100803.30;;;6.73;72.36
75745;BME280;74462;51.366;-0.222;2024-03-08T04:50:34;100802.42;;;6.73;72.27
75745;BME280;74462;51.366;-0.222;2024-03-08T04:51:38;100801.88;;;6.74;72.16
75745;BME280;74462;51.366;-0.222;2024-03-08T04:52:43;100797.44;;;6.74;72.30
75745;BME280;74462;51.366;-0.222;2024-03-08T04:53:47;100795.91;;;6.73;72.19
75745;BME280;74462;51.366;-0.222;2024-03-08T04:54:52;100797.89;;;6.72;72.36
75745;BME280;74462;51.366;-0.222;2024-03-08T04:55:57;100800.23;;;6.72;72.16
75745;BME280;74462;51.366;-0.222;2024-03-08T04:57:02;100799.20;;;6.71;72.13
75745;BME280;74462;51.366;-0.222;2024-03-08T04:58:07;100797.90;;;6.70;72.15
75745;BME280;74462;51.366;-0.222;2024-03-08T04:59:12;100795.27;;;6.70;72.22
75745;BME280;74462;51.366;-0.222;2024-03-08T05:00:17;100796.31;;;6.70;71.89
75745;BME280;74462;51.366;-0.222;2024-03-08T05:01:22;100794.05;;;6.69;72.18
75745;BME280;74462;51.366;-0.222;2024-03-08T05:02:26;100794.38;;;6.69;72.22
75745;BME280;74462;51.366;-0.222;2024-03-08T05:03:31;100789.23;;;6.67;72.30
75745;BME280;74462;51.366;-0.222;2024-03-08T05:04:35;100791.55;;;6.67;72.02
75745;BME280;74462;51.366;-0.222;2024-03-08T05:05:40;100788.39;;;6.66;72.31
75745;BME280;74462;51.366;-0.222;2024-03-08T05:06:45;100790.09;;;6.65;72.22
75745;BME280;74462;51.366;-0.222;2024-03-08T05:07:50;100787.95;;;6.65;72.05
75745;BME280;74462;51.366;-0.222;2024-03-08T05:08:54;100785.40;;;6.63;72.03
75745;BME280;74462;51.366;-0.222;2024-03-08T05:09:59;100784.11;;;6.65;72.15
75745;BME280;74462;51.366;-0.222;2024-03-08T05:11:03;100780.42;;;6.64;72.15
75745;BME280;74462;51.366;-0.222;2024-03-08T05:12:10;100779.92;;;6.64;72.19
75745;BME280;74462;51.366;-0.222;2024-03-08T05:13:14;100778.19;;;6.63;71.94
75745;BME280;74462;51.366;-0.222;2024-03-08T05:14:19;100776.98;;;6.62;72.11
75745;BME280;74462;51.366;-0.222;2024-03-08T05:15:24;100779.38;;;6.61;72.10
75745;BME280;74462;51.366;-0.222;2024-03-08T05:16:28;100774.99;;;6.58;72.51
75745;BME280;74462;51.366;-0.222;2024-03-08T05:17:32;100771.99;;;6.58;72.16
75745;BME280;74462;51.366;-0.222;2024-03-08T05:18:37;100770.08;;;6.57;72.47
75745;BME280;74462;51.366;-0.222;2024-03-08T05:19:41;100770.85;;;6.57;72.36
75745;BME280;74462;51.366;-0.222;2024-03-08T05:20:46;100766.20;;;6.55;72.57
75745;BME280;74462;51.366;-0.222;2024-03-08T05:21:51;100769.04;;;6.55;72.36
75745;BME280;74462;51.366;-0.222;2024-03-08T05:22:55;100763.27;;;6.54;72.57
75745;BME280;74462;51.366;-0.222;2024-03-08T05:24:01;100763.64;;;6.53;72.67
75745;BME280;74462;51.366;-0.222;2024-03-08T05:25:08;100761.89;;;6.50;72.37
75745;BME280;74462;51.366;-0.222;2024-03-08T05:26:13;100760.64;;;6.51;72.68
75745;BME280;74462;51.366;-0.222;2024-03-08T05:27:18;100760.61;;;6.51;72.32
75745;BME280;74462;51.366;-0.222;2024-03-08T05:28:22;100753.63;;;6.50;72.68
75745;BME280;74462;51.366;-0.222;2024-03-08T05:29:27;100750.55;;;6.49;72.72
75745;BME280;74462;51.366;-0.222;2024-03-08T05:30:32;100745.59;;;6.49;72.89
75745;BME280;74462;51.366;-0.222;2024-03-08T05:31:45;100745.85;;;6.47;72.96
75745;BME280;74462;51.366;-0.222;2024-03-08T05:32:50;100743.98;;;6.46;72.93
75745;BME280;74462;51.366;-0.222;2024-03-08T05:33:54;100740.83;;;6.45;72.72
75745;BME280;74462;51.366;-0.222;2024-03-08T05:34:59;100740.13;;;6.46;72.79
75745;BME280;74462;51.366;-0.222;2024-03-08T05:36:04;100739.60;;;6.45;73.04
75745;BME280;74462;51.366;-0.222;2024-03-08T05:37:09;100735.77;;;6.45;72.91
75745;BME280;74462;51.366;-0.222;2024-03-08T05:38:14;100735.02;;;6.43;73.34
75745;BME280;74462;51.366;-0.222;2024-03-08T05:39:19;100733.04;;;6.41;73.22
75745;BME280;74462;51.366;-0.222;2024-03-08T05:40:23;100730.92;;;6.41;73.54
75745;BME280;74462;51.366;-0.222;2024-03-08T05:41:28;100727.32;;;6.39;73.40